Time;durP1;ratioP1;P1;durP2;ratioP2;P2;SDS_P1;SDS_P2;PMS_P1;PMS_P2;Temp;Humidity;BMP_temperature;BMP_pressure;BME280_temperature;BME280_humidity;BME280_pressure;Samples;Min_cycle;Max_cycle;Signal;HPM_P1;HPM_P2
2022/03/20 00:00:44;;;;;;;;;;;21.00;37.10;;;;;;5064257;28;19916;-54
2022/03/20 00:03:11;;;;;;;;;;;21.00;37.10;;;;;;5059507;28;19913;-54
2022/03/20 00:05:38;;;;;;;;;;;21.00;37.10;;;;;;5062049;28;20058;-54
2022/03/20 00:08:11;;;;;;;;;;;21.00;37.00;;;;;;5062421;28;19935;-54
2022/03/20 00:10:37;;;;;;;;;;;21.00;36.90;;;;;;5064311;28;19920;-55
2022/03/20 00:13:06;;;;;;;;;;;21.00;36.80;;;;;;5062299;28;20041;-54
2022/03/20 00:15:31;;;;;;;;;;;21.10;36.80;;;;;;5064319;28;20360;-55
2022/03/20 00:17:57;;;;;;;;;;;21.00;36.70;;;;;;5063425;28;19991;-55
2022/03/20 00:20:22;;;;;;;;;;;21.00;36.80;;;;;;5063670;28;20042;-54
2022/03/20 00:22:48;;;;;;;;;;;20.90;36.80;;;;;;5065285;28;19935;-55
2022/03/20 00:25:13;;;;;;;;;;;20.90;36.80;;;;;;5062407;28;19920;-54
2022/03/20 00:27:39;;;;;;;;;;;20.90;36.80;;;;;;5062417;28;19913;-55
2022/03/20 00:30:05;;;;;;;;;;;20.90;36.80;;;;;;5063023;28;19916;-55
2022/03/20 00:32:30;;;;;;;;;;;20.80;36.80;;;;;;5063710;28;19923;-55
2022/03/20 00:34:59;;;;;;;;;;;20.80;36.90;;;;;;5064262;28;19920;-54
2022/03/20 00:37:25;;;;;;;;;;;20.70;37.00;;;;;;5061618;28;19920;-55
2022/03/20 00:39:50;;;;;;;;;;;20.60;37.00;;;;;;5060077;28;19921;-54
2022/03/20 00:42:16;;;;;;;;;;;20.60;37.10;;;;;;5061739;28;20295;-54
2022/03/20 00:44:41;;;;;;;;;;;20.60;37.00;;;;;;5064033;28;20256;-54
2022/03/20 00:47:07;;;;;;;;;;;20.60;37.10;;;;;;5067170;28;19913;-54
2022/03/20 00:49:32;;;;;;;;;;;20.60;37.10;;;;;;5066444;28;19940;-54
2022/03/20 00:51:58;;;;;;;;;;;20.50;37.00;;;;;;5065891;28;19958;-55
2022/03/20 00:54:23;;;;;;;;;;;20.50;37.10;;;;;;5063358;28;19928;-55
2022/03/20 00:56:48;;;;;;;;;;;20.50;37.10;;;;;;5066111;28;19936;-54
2022/03/20 00:59:14;;;;;;;;;;;20.50;37.10;;;;;;5063808;28;19999;-55
2022/03/20 01:01:41;;;;;;;;;;;20.40;37.20;;;;;;5066491;28;19916;-54
2022/03/20 01:04:07;;;;;;;;;;;20.40;37.10;;;;;;5067979;28;19919;-55
2022/03/20 01:06:32;;;;;;;;;;;20.30;37.20;;;;;;5066852;28;19920;-55
2022/03/20 01:08:58;;;;;;;;;;;20.20;37.30;;;;;;5067635;28;20281;-55
2022/03/20 01:11:23;;;;;;;;;;;20.20;37.30;;;;;;5065677;28;19920;-54
2022/03/20 01:13:49;;;;;;;;;;;20.10;37.30;;;;;;5065535;28;20014;-55
2022/03/20 01:16:14;;;;;;;;;;;20.10;37.40;;;;;;5067770;28;19955;-54
2022/03/20 01:18:40;;;;;;;;;;;20.10;37.40;;;;;;5064357;28;20373;-55
2022/03/20 01:21:07;;;;;;;;;;;20.10;37.50;;;;;;5066764;28;19923;-55
2022/03/20 01:23:33;;;;;;;;;;;20.10;37.50;;;;;;5067823;28;20329;-54
2022/03/20 01:25:58;;;;;;;;;;;20.10;37.40;;;;;;5067255;28;20428;-54
2022/03/20 01:28:23;;;;;;;;;;;20.10;37.30;;;;;;5064319;28;19924;-54
2022/03/20 01:30:49;;;;;;;;;;;20.10;37.30;;;;;;5067099;28;19917;-55
2022/03/20 01:33:15;;;;;;;;;;;20.10;37.30;;;;;;5067834;28;19912;-54
2022/03/20 01:35:40;;;;;;;;;;;20.10;37.20;;;;;;5068812;28;19962;-54
2022/03/20 01:38:06;;;;;;;;;;;20.10;37.20;;;;;;5066168;28;20288;-54
2022/03/20 01:40:31;;;;;;;;;;;20.10;37.20;;;;;;5067722;28;20369;-54
2022/03/20 01:42:57;;;;;;;;;;;20.10;37.10;;;;;;5066062;28;20011;-55
2022/03/20 01:45:23;;;;;;;;;;;20.00;37.10;;;;;;5067379;28;19920;-54
2022/03/20 01:47:49;;;;;;;;;;;20.00;37.10;;;;;;5065730;28;19920;-55
2022/03/20 01:50:19;;;;;;;;;;;20.00;37.70;;;;;;5066061;28;20061;-55
2022/03/20 01:52:45;;;;;;;;;;;20.00;37.00;;;;;;5064706;28;19920;-55
2022/03/20 01:55:11;;;;;;;;;;;20.10;37.10;;;;;;5063021;28;20002;-55
2022/03/20 01:57:37;;;;;;;;;;;20.00;37.10;;;;;;5064307;28;20089;-55
2022/03/20 02:00:03;;;;;;;;;;;20.00;37.10;;;;;;5066155;28;20360;-55
2022/03/20 02:02:29;;;;;;;;;;;20.00;37.10;;;;;;5065444;28;19924;-55
2022/03/20 02:04:54;;;;;;;;;;;19.90;37.10;;;;;;5066133;28;19912;-55
2022/03/20 02:07:22;;;;;;;;;;;20.00;37.20;;;;;;5062926;28;20065;-55
2022/03/20 02:09:47;;;;;;;;;;;20.00;37.20;;;;;;5065991;28;19913;-55
2022/03/20 02:12:13;;;;;;;;;;;20.00;37.10;;;;;;5066040;28;19927;-55
2022/03/20 02:14:38;;;;;;;;;;;19.90;37.10;;;;;;5063578;28;19923;-55
2022/03/20 02:17:04;;;;;;;;;;;19.90;37.00;;;;;;5065508;28;20028;-55
2022/03/20 02:19:29;;;;;;;;;;;20.00;37.00;;;;;;5065523;28;19917;-55
2022/03/20 02:21:55;;;;;;;;;;;20.10;36.90;;;;;;5064558;28;20005;-55
2022/03/20 02:24:31;;;;;;;;;;;20.30;36.80;;;;;;5067416;28;19948;-55
2022/03/20 02:27:04;;;;;;;;;;;20.40;36.70;;;;;;5065083;28;20028;-55
2022/03/20 02:29:30;;;;;;;;;;;20.70;36.50;;;;;;5065937;28;20399;-55
2022/03/20 02:31:58;;;;;;;;;;;21.00;36.10;;;;;;5063905;28;19919;-55
2022/03/20 02:34:25;;;;;;;;;;;21.30;35.40;;;;;;5065754;28;19927;-55
2022/03/20 02:36:50;;;;;;;;;;;21.70;35.50;;;;;;5064027;28;19921;-55
2022/03/20 02:39:16;;;;;;;;;;;22.10;34.60;;;;;;5065397;28;19969;-56
2022/03/20 02:41:41;;;;;;;;;;;22.30;34.10;;;;;;5058454;28;19923;-55
2022/03/20 02:44:06;;;;;;;;;;;22.60;33.80;;;;;;5065013;28;20425;-55
2022/03/20 02:46:37;;;;;;;;;;;22.90;33.50;;;;;;5063971;28;20391;-56
2022/03/20 02:49:04;;;;;;;;;;;23.10;33.20;;;;;;5064325;28;19959;-55
2022/03/20 02:51:29;;;;;;;;;;;23.10;32.90;;;;;;5064664;28;19916;-55
2022/03/20 02:53:55;;;;;;;;;;;23.30;32.90;;;;;;5063937;28;21280;-55
2022/03/20 02:56:21;;;;;;;;;;;23.30;32.80;;;;;;5065956;28;19952;-55
2022/03/20 02:58:47;;;;;;;;;;;23.30;32.80;;;;;;5064814;28;19958;-56
2022/03/20 03:01:13;;;;;;;;;;;23.30;32.80;;;;;;5063437;28;19919;-55
2022/03/20 03:03:40;;;;;;;;;;;23.30;32.80;;;;;;5062835;28;19916;-56
2022/03/20 03:06:08;;;;;;;;;;;23.20;32.90;;;;;;5063689;28;19920;-56
2022/03/20 03:11:19;;;;;;;;;;;23.10;33.10;;;;;;5065393;28;19951;-55
2022/03/20 03:13:44;;;;;;;;;;;23.00;33.20;;;;;;5063507;28;19963;-55
2022/03/20 03:16:10;;;;;;;;;;;22.90;33.30;;;;;;5063554;28;19912;-55
2022/03/20 03:18:36;;;;;;;;;;;22.80;33.40;;;;;;5066255;28;20010;-55
2022/03/20 03:21:02;;;;;;;;;;;22.60;33.70;;;;;;5061682;28;20050;-55
2022/03/20 03:23:27;;;;;;;;;;;22.50;33.90;;;;;;5064487;28;19955;-55
2022/03/20 03:25:53;;;;;;;;;;;22.30;34.00;;;;;;5063913;28;19999;-55
2022/03/20 03:28:18;;;;;;;;;;;22.20;34.30;;;;;;5064880;28;19962;-55
2022/03/20 03:30:45;;;;;;;;;;;22.10;34.50;;;;;;5065216;28;20055;-55
2022/03/20 03:33:13;;;;;;;;;;;22.00;34.60;;;;;;5062100;28;19939;-55
2022/03/20 03:35:42;;;;;;;;;;;22.00;34.80;;;;;;5062902;28;19921;-56
2022/03/20 03:38:11;;;;;;;;;;;21.90;34.70;;;;;;5064619;28;20395;-55
2022/03/20 03:40:37;;;;;;;;;;;21.90;34.80;;;;;;5061973;28;19999;-55
2022/03/20 03:43:03;;;;;;;;;;;21.90;34.90;;;;;;5062991;28;19936;-55
2022/03/20 03:45:29;;;;;;;;;;;21.80;34.90;;;;;;5064620;28;19917;-55
2022/03/20 03:47:55;;;;;;;;;;;21.80;34.90;;;;;;5065110;28;19912;-56
2022/03/20 03:50:20;;;;;;;;;;;21.80;34.90;;;;;;5064423;28;20384;-55
2022/03/20 03:52:46;;;;;;;;;;;21.80;34.90;;;;;;5063200;28;20029;-55
2022/03/20 03:55:11;;;;;;;;;;;21.80;35.00;;;;;;5065179;28;19913;-55
2022/03/20 03:57:39;;;;;;;;;;;21.80;34.90;;;;;;5062201;28;19920;-55
2022/03/20 04:00:05;;;;;;;;;;;21.90;34.70;;;;;;5063121;28;19917;-55
2022/03/20 04:02:31;;;;;;;;;;;22.00;34.60;;;;;;5065083;28;19990;-55
2022/03/20 04:04:56;;;;;;;;;;;22.00;34.50;;;;;;5064114;28;20015;-55
2022/03/20 04:07:22;;;;;;;;;;;22.10;34.40;;;;;;5064600;28;19943;-55
2022/03/20 04:09:47;;;;;;;;;;;22.10;34.30;;;;;;5063359;28;19916;-55
2022/03/20 04:12:13;;;;;;;;;;;22.10;34.20;;;;;;5063604;28;20371;-55
2022/03/20 04:14:42;;;;;;;;;;;22.20;34.10;;;;;;5065609;28;19955;-54
2022/03/20 04:17:08;;;;;;;;;;;22.20;34.10;;;;;;5059588;28;19977;-54
2022/03/20 04:19:33;;;;;;;;;;;22.20;34.00;;;;;;5064114;28;19925;-54
2022/03/20 04:21:59;;;;;;;;;;;22.30;34.10;;;;;;5068314;28;19982;-54
2022/03/20 04:24:24;;;;;;;;;;;22.30;33.90;;;;;;5067874;28;19955;-54
2022/03/20 04:26:50;;;;;;;;;;;22.40;33.90;;;;;;5068976;28;19912;-54
2022/03/20 04:29:15;;;;;;;;;;;22.40;33.80;;;;;;5068390;28;19974;-54
2022/03/20 04:31:41;;;;;;;;;;;22.50;33.70;;;;;;5068311;28;19916;-54
2022/03/20 04:34:06;;;;;;;;;;;22.50;33.60;;;;;;5066725;28;20078;-54
2022/03/20 04:36:32;;;;;;;;;;;22.50;33.50;;;;;;5066678;28;20416;-54
2022/03/20 04:39:00;;;;;;;;;;;22.50;33.40;;;;;;5067972;28;19920;-54
2022/03/20 04:41:26;;;;;;;;;;;22.50;33.50;;;;;;5060509;28;20040;-54
2022/03/20 04:43:52;;;;;;;;;;;22.40;33.50;;;;;;5065180;28;20007;-55
2022/03/20 04:46:17;;;;;;;;;;;22.40;33.60;;;;;;5066447;28;20272;-54
2022/03/20 04:59:40;;;;;;;;;;;22.50;33.60;;;;;;5064607;28;19922;-55
2022/03/20 05:02:05;;;;;;;;;;;22.40;33.60;;;;;;5066150;28;19916;-55
2022/03/20 05:04:30;;;;;;;;;;;22.40;33.60;;;;;;5064528;28;19919;-55
2022/03/20 05:06:56;;;;;;;;;;;22.40;33.60;;;;;;5065677;28;20261;-54
2022/03/20 05:14:50;;;;;;;;;;;22.20;33.80;;;;;;5067479;28;19997;-55
2022/03/20 05:17:15;;;;;;;;;;;22.20;33.80;;;;;;5066708;28;19974;-54
2022/03/20 05:19:41;;;;;;;;;;;22.10;33.90;;;;;;5065868;28;19927;-54
2022/03/20 05:22:10;;;;;;;;;;;22.10;33.90;;;;;;5059646;28;20353;-55
2022/03/20 05:24:36;;;;;;;;;;;22.10;33.90;;;;;;5065471;28;19921;-55
2022/03/20 05:27:02;;;;;;;;;;;22.10;33.90;;;;;;5067140;28;19959;-54
2022/03/20 05:29:27;;;;;;;;;;;22.10;33.90;;;;;;5066430;28;20007;-54
2022/03/20 05:31:56;;;;;;;;;;;22.10;33.90;;;;;;5065914;28;19916;-54
2022/03/20 05:34:22;;;;;;;;;;;22.10;33.80;;;;;;5066698;28;20390;-54
2022/03/20 05:36:47;;;;;;;;;;;22.10;34.50;;;;;;5065382;28;19913;-54
2022/03/20 05:39:13;;;;;;;;;;;22.20;33.70;;;;;;5068479;28;20341;-54
2022/03/20 05:41:48;;;;;;;;;;;22.30;33.70;;;;;;5065829;28;19968;-54
2022/03/20 05:44:16;;;;;;;;;;;22.30;33.50;;;;;;5065286;28;20053;-54
2022/03/20 05:46:42;;;;;;;;;;;22.40;33.80;;;;;;5060695;28;19919;-55
2022/03/20 05:49:07;;;;;;;;;;;22.50;33.30;;;;;;5064275;28;20312;-54
2022/03/20 05:51:34;;;;;;;;;;;22.50;33.30;;;;;;5064868;28;20046;-54
2022/03/20 05:54:00;;;;;;;;;;;22.50;33.20;;;;;;5064799;28;19912;-54
2022/03/20 05:59:10;;;;;;;;;;;22.50;33.10;;;;;;5065420;28;20066;-54
2022/03/20 06:01:35;;;;;;;;;;;22.50;33.10;;;;;;5067659;28;20007;-55
2022/03/20 06:04:03;;;;;;;;;;;22.50;33.10;;;;;;5066183;28;19912;-54
2022/03/20 06:06:29;;;;;;;;;;;22.50;33.20;;;;;;5066036;28;20035;-55
2022/03/20 06:08:55;;;;;;;;;;;22.40;33.10;;;;;;5065578;28;19913;-55
2022/03/20 06:11:21;;;;;;;;;;;22.50;33.20;;;;;;5065134;28;19913;-55
2022/03/20 06:13:48;;;;;;;;;;;22.50;33.10;;;;;;5066306;28;19913;-55
2022/03/20 06:16:17;;;;;;;;;;;22.40;33.10;;;;;;5062798;28;19920;-54
2022/03/20 06:18:43;;;;;;;;;;;22.40;33.20;;;;;;5064581;28;19924;-55
2022/03/20 06:21:11;;;;;;;;;;;22.30;33.30;;;;;;5066318;28;20273;-55
2022/03/20 06:23:38;;;;;;;;;;;22.20;33.40;;;;;;5064773;28;19913;-55
2022/03/20 06:26:03;;;;;;;;;;;22.20;33.40;;;;;;5065380;28;20016;-55
2022/03/20 06:28:29;;;;;;;;;;;22.30;33.40;;;;;;5063950;28;20018;-55
2022/03/20 06:30:54;;;;;;;;;;;22.30;33.30;;;;;;5064802;28;19912;-56
2022/03/20 06:33:20;;;;;;;;;;;22.40;33.30;;;;;;5065719;28;19917;-56
2022/03/20 06:35:46;;;;;;;;;;;22.40;33.20;;;;;;5064255;28;20245;-55
2022/03/20 06:38:12;;;;;;;;;;;22.40;33.20;;;;;;5064718;28;19916;-55
2022/03/20 06:40:37;;;;;;;;;;;22.40;33.10;;;;;;5065232;28;20283;-55
2022/03/20 06:43:03;;;;;;;;;;;22.40;33.10;;;;;;5060236;28;19916;-55
2022/03/20 06:45:28;;;;;;;;;;;22.40;33.10;;;;;;5065338;28;19927;-55
2022/03/20 06:47:54;;;;;;;;;;;22.40;33.20;;;;;;5065805;28;19962;-55
2022/03/20 06:50:19;;;;;;;;;;;22.40;33.20;;;;;;5079675;28;20012;-55
2022/03/20 06:52:45;;;;;;;;;;;22.30;33.10;;;;;;5064850;28;19916;-56
2022/03/20 06:55:16;;;;;;;;;;;22.30;33.20;;;;;;5067625;28;19916;-55
2022/03/20 06:57:41;;;;;;;;;;;22.30;33.40;;;;;;5063495;28;19924;-55
2022/03/20 07:00:08;;;;;;;;;;;22.20;33.30;;;;;;5064542;28;19921;-55
2022/03/20 07:02:34;;;;;;;;;;;22.20;33.40;;;;;;5065453;28;20311;-55
2022/03/20 07:05:00;;;;;;;;;;;22.20;33.40;;;;;;5061340;28;19920;-55
2022/03/20 07:07:26;;;;;;;;;;;22.20;33.40;;;;;;5065435;28;19963;-55
2022/03/20 07:09:51;;;;;;;;;;;22.20;33.40;;;;;;5062582;28;19968;-56
2022/03/20 07:12:17;;;;;;;;;;;22.20;33.30;;;;;;5064206;28;19920;-55
2022/03/20 07:14:42;;;;;;;;;;;22.30;33.30;;;;;;5061980;28;20272;-55
2022/03/20 07:17:11;;;;;;;;;;;22.30;33.20;;;;;;5062364;28;20035;-56
2022/03/20 07:19:37;;;;;;;;;;;22.30;33.10;;;;;;5066688;28;19917;-55
2022/03/20 07:22:04;;;;;;;;;;;22.40;33.10;;;;;;5064997;28;19989;-55
2022/03/20 07:24:29;;;;;;;;;;;22.40;33.00;;;;;;5065487;28;19916;-55
2022/03/20 07:29:39;;;;;;;;;;;22.40;32.90;;;;;;5065103;28;19969;-55
2022/03/20 07:32:06;;;;;;;;;;;22.40;32.90;;;;;;5063774;28;19916;-54
2022/03/20 07:34:32;;;;;;;;;;;22.40;32.90;;;;;;5067415;28;19913;-55
2022/03/20 07:36:57;;;;;;;;;;;22.40;33.00;;;;;;5063270;28;19913;-55
2022/03/20 07:39:23;;;;;;;;;;;22.30;33.00;;;;;;5063753;28;20015;-55
2022/03/20 07:41:48;;;;;;;;;;;22.30;33.10;;;;;;5065696;28;19916;-56
2022/03/20 07:44:14;;;;;;;;;;;22.30;33.20;;;;;;5064269;28;19975;-54
2022/03/20 07:46:40;;;;;;;;;;;22.20;33.10;;;;;;5063833;28;19916;-55
2022/03/20 07:49:07;;;;;;;;;;;22.20;33.20;;;;;;5064994;28;20420;-55
2022/03/20 07:51:33;;;;;;;;;;;22.20;33.20;;;;;;5063861;28;20249;-56
2022/03/20 07:53:59;;;;;;;;;;;22.20;33.20;;;;;;5066147;28;20049;-54
2022/03/20 07:56:25;;;;;;;;;;;22.10;33.20;;;;;;5062567;28;19939;-55
2022/03/20 07:58:51;;;;;;;;;;;22.10;33.40;;;;;;5065145;28;19960;-55
2022/03/20 08:01:16;;;;;;;;;;;22.00;33.30;;;;;;5063314;28;19960;-55
2022/03/20 08:03:42;;;;;;;;;;;22.10;33.30;;;;;;5063947;28;19916;-54
2022/03/20 08:06:08;;;;;;;;;;;22.20;33.20;;;;;;5066543;28;19988;-55
2022/03/20 08:08:34;;;;;;;;;;;22.30;33.80;;;;;;5062601;28;20347;-55
2022/03/20 08:11:00;;;;;;;;;;;22.30;32.90;;;;;;5065411;28;19913;-54
2022/03/20 08:13:25;;;;;;;;;;;22.40;32.90;;;;;;5062697;28;19997;-55
2022/03/20 08:15:51;;;;;;;;;;;22.40;32.90;;;;;;5064078;28;19913;-54
2022/03/20 08:18:16;;;;;;;;;;;22.40;33.00;;;;;;5063176;28;19920;-55
2022/03/20 08:20:42;;;;;;;;;;;22.40;33.00;;;;;;5063170;28;19997;-55
2022/03/20 08:23:07;;;;;;;;;;;22.40;33.10;;;;;;5063389;28;19920;-56
2022/03/20 08:25:33;;;;;;;;;;;22.40;33.10;;;;;;5063929;28;19920;-55
2022/03/20 08:27:58;;;;;;;;;;;22.40;33.00;;;;;;5061582;28;19916;-55
2022/03/20 08:30:24;;;;;;;;;;;22.50;33.10;;;;;;5063088;28;19920;-55
2022/03/20 08:32:52;;;;;;;;;;;22.50;33.00;;;;;;5059757;28;20241;-55
2022/03/20 08:35:19;;;;;;;;;;;22.50;33.00;;;;;;5064476;28;19939;-55
2022/03/20 08:37:44;;;;;;;;;;;22.50;33.10;;;;;;5059252;28;19916;-56
2022/03/20 08:40:16;;;;;;;;;;;22.50;33.00;;;;;;5064161;28;20429;-55
2022/03/20 08:42:43;;;;;;;;;;;22.40;33.00;;;;;;5058421;28;19923;-55
2022/03/20 08:45:09;;;;;;;;;;;22.40;33.10;;;;;;5057891;28;19924;-55
2022/03/20 08:47:35;;;;;;;;;;;22.40;33.20;;;;;;5060144;28;19920;-55
2022/03/20 08:50:00;;;;;;;;;;;22.40;33.30;;;;;;5063687;28;19912;-55
2022/03/20 08:52:26;;;;;;;;;;;22.40;33.30;;;;;;5060957;28;20415;-54
2022/03/20 08:54:51;;;;;;;;;;;22.30;33.20;;;;;;5063995;28;19958;-54
2022/03/20 08:57:17;;;;;;;;;;;22.30;33.40;;;;;;5060723;28;19916;-54
2022/03/20 08:59:44;;;;;;;;;;;22.20;33.40;;;;;;5061128;28;19931;-55
2022/03/20 09:02:09;;;;;;;;;;;22.20;33.50;;;;;;5063064;28;20245;-55
2022/03/20 09:04:34;;;;;;;;;;;22.10;33.50;;;;;;5059725;28;19920;-55
2022/03/20 09:07:00;;;;;;;;;;;22.10;33.70;;;;;;5062373;28;19927;-56
2022/03/20 09:09:25;;;;;;;;;;;22.00;33.90;;;;;;5064461;28;19913;-54
2022/03/20 09:11:51;;;;;;;;;;;22.00;33.90;;;;;;5065524;28;20429;-54
2022/03/20 09:14:16;;;;;;;;;;;22.00;34.50;;;;;;5059931;28;20007;-57
2022/03/20 09:19:26;;;;;;;;;;;22.10;33.80;;;;;;5063428;28;20011;-55
2022/03/20 09:21:52;;;;;;;;;;;22.10;33.70;;;;;;5066609;28;20015;-57
2022/03/20 09:24:17;;;;;;;;;;;22.20;33.80;;;;;;5063609;28;19921;-54
2022/03/20 09:26:43;;;;;;;;;;;22.20;33.80;;;;;;5065591;28;20364;-55
2022/03/20 09:29:08;;;;;;;;;;;22.30;33.70;;;;;;5072054;28;19916;-55
2022/03/20 09:31:37;;;;;;;;;;;22.30;33.40;;;;;;5067789;28;20027;-54
2022/03/20 09:34:02;;;;;;;;;;;22.30;33.10;;;;;;5065118;28;19965;-55
2022/03/20 09:36:29;;;;;;;;;;;22.20;32.90;;;;;;5072958;28;19916;-55
2022/03/20 09:38:54;;;;;;;;;;;22.30;32.90;;;;;;5065695;28;20369;-55
2022/03/20 09:41:20;;;;;;;;;;;22.30;32.90;;;;;;5069623;28;19913;-55
2022/03/20 09:43:45;;;;;;;;;;;22.30;32.90;;;;;;5072142;28;19969;-55
2022/03/20 09:46:11;;;;;;;;;;;22.30;32.90;;;;;;5072504;28;19915;-55
2022/03/20 09:48:36;;;;;;;;;;;22.30;32.90;;;;;;5071963;28;20015;-55
2022/03/20 09:51:02;;;;;;;;;;;22.40;33.00;;;;;;5072088;28;19920;-55
2022/03/20 09:53:28;;;;;;;;;;;22.40;33.00;;;;;;5072326;28;19915;-55
2022/03/20 09:55:57;;;;;;;;;;;22.40;33.00;;;;;;5071740;28;19913;-55
2022/03/20 09:58:23;;;;;;;;;;;22.30;32.90;;;;;;5072495;28;19975;-55
2022/03/20 10:00:48;;;;;;;;;;;22.10;33.00;;;;;;5072017;28;19955;-55
2022/03/20 10:03:14;;;;;;;;;;;22.10;33.30;;;;;;5073279;28;20009;-55
2022/03/20 10:05:40;;;;;;;;;;;21.90;33.30;;;;;;5073129;28;19908;-55
2022/03/20 10:08:20;;;;;;;;;;;21.70;33.40;;;;;;5073174;28;19943;-55
2022/03/20 10:10:47;;;;;;;;;;;21.70;33.70;;;;;;5072290;28;20372;-55
2022/03/20 10:13:13;;;;;;;;;;;21.50;33.50;;;;;;5067495;28;20028;-55
2022/03/20 10:15:39;;;;;;;;;;;21.50;33.90;;;;;;5065541;28;20002;-55
2022/03/20 10:18:07;;;;;;;;;;;21.40;33.40;;;;;;5062025;28;19920;-55
2022/03/20 10:20:36;;;;;;;;;;;21.30;33.80;;;;;;5064880;28;19912;-55
2022/03/20 10:23:03;;;;;;;;;;;21.30;33.70;;;;;;5065811;28;19912;-55
2022/03/20 10:25:28;;;;;;;;;;;21.20;33.90;;;;;;5066995;28;20028;-55
2022/03/20 10:27:55;;;;;;;;;;;21.20;33.50;;;;;;5065635;28;20033;-55
2022/03/20 10:30:20;;;;;;;;;;;21.20;33.90;;;;;;5066008;28;19912;-55
2022/03/20 10:32:46;;;;;;;;;;;21.20;33.80;;;;;;5066282;28;19923;-55
2022/03/20 10:35:12;;;;;;;;;;;21.20;33.50;;;;;;5063347;28;19935;-54
2022/03/20 10:37:44;;;;;;;;;;;21.20;33.40;;;;;;5066534;28;19912;-55
2022/03/20 10:40:10;;;;;;;;;;;21.20;33.30;;;;;;5067092;28;20011;-55
2022/03/20 10:42:35;;;;;;;;;;;21.30;33.40;;;;;;5063095;28;20041;-55
2022/03/20 10:45:05;;;;;;;;;;;21.40;32.90;;;;;;5062553;28;19920;-55
2022/03/20 10:47:30;;;;;;;;;;;21.40;32.50;;;;;;5062236;28;19913;-55
2022/03/20 10:50:06;;;;;;;;;;;21.40;32.50;;;;;;5062836;28;19959;-55
2022/03/20 10:52:32;;;;;;;;;;;21.40;32.60;;;;;;5057905;28;20395;-55
2022/03/20 10:54:58;;;;;;;;;;;21.40;32.10;;;;;;5067095;28;19923;-55
2022/03/20 10:57:31;;;;;;;;;;;21.50;32.00;;;;;;5063567;28;19954;-55
2022/03/20 10:59:57;;;;;;;;;;;21.50;32.00;;;;;;5065594;28;20318;-54
2022/03/20 11:02:23;;;;;;;;;;;21.50;32.30;;;;;;5062964;28;20011;-54
2022/03/20 11:04:49;;;;;;;;;;;21.50;32.40;;;;;;5063944;28;20054;-55
2022/03/20 11:07:18;;;;;;;;;;;21.50;32.30;;;;;;5064283;28;19970;-55
2022/03/20 11:09:44;;;;;;;;;;;21.40;31.80;;;;;;5060541;28;19936;-55
2022/03/20 11:12:10;;;;;;;;;;;21.40;32.00;;;;;;5061709;28;19912;-55
2022/03/20 11:14:35;;;;;;;;;;;21.40;31.80;;;;;;5066747;28;19916;-55
2022/03/20 11:17:02;;;;;;;;;;;21.40;31.70;;;;;;5061574;28;19919;-55
2022/03/20 11:19:29;;;;;;;;;;;21.40;31.70;;;;;;5061060;28;19917;-54
2022/03/20 11:21:54;;;;;;;;;;;21.40;31.80;;;;;;5063682;28;19921;-55
2022/03/20 11:24:20;;;;;;;;;;;21.40;31.90;;;;;;5065256;28;20011;-54
2022/03/20 11:26:50;;;;;;;;;;;21.40;32.30;;;;;;5061664;28;19920;-55
2022/03/20 11:29:15;;;;;;;;;;;21.40;32.20;;;;;;5063626;28;20296;-55
2022/03/20 11:31:41;;;;;;;;;;;21.40;32.40;;;;;;5064318;28;19912;-55
2022/03/20 11:34:07;;;;;;;;;;;21.40;32.30;;;;;;5062401;28;20081;-55
2022/03/20 11:36:33;;;;;;;;;;;21.40;32.50;;;;;;5064502;28;19963;-55
2022/03/20 11:39:08;;;;;;;;;;;21.30;32.20;;;;;;5062842;28;19935;-54
2022/03/20 11:41:33;;;;;;;;;;;21.40;32.60;;;;;;5061527;28;19920;-55
2022/03/20 11:44:20;;;;;;;;;;;21.40;32.20;;;;;;5061665;28;19917;-55
2022/03/20 11:46:47;;;;;;;;;;;21.30;32.00;;;;;;5063030;28;19912;-54
2022/03/20 11:49:19;;;;;;;;;;;21.40;31.30;;;;;;5064396;28;20429;-54
2022/03/20 11:52:05;;;;;;;;;;;21.40;31.30;;;;;;5062770;28;20291;-54
2022/03/20 11:54:40;;;;;;;;;;;21.40;31.40;;;;;;5063505;28;20310;-54
2022/03/20 11:57:26;;;;;;;;;;;21.50;31.30;;;;;;5064663;28;20417;-55
2022/03/20 11:59:52;;;;;;;;;;;21.50;31.40;;;;;;5055673;28;19923;-54
2022/03/20 12:02:18;;;;;;;;;;;21.40;31.40;;;;;;5063045;28;19912;-54
2022/03/20 12:05:01;;;;;;;;;;;21.40;31.40;;;;;;5063226;28;19939;-55
2022/03/20 12:07:39;;;;;;;;;;;21.40;31.20;;;;;;5061837;28;20326;-54
2022/03/20 12:10:10;;;;;;;;;;;21.40;31.30;;;;;;5063103;28;19959;-54
2022/03/20 12:12:40;;;;;;;;;;;21.40;31.10;;;;;;5064147;28;23924;-54
2022/03/20 12:15:06;;;;;;;;;;;21.40;31.10;;;;;;5062218;28;19916;-54
2022/03/20 12:17:50;;;;;;;;;;;21.50;31.00;;;;;;5064511;28;20001;-54
2022/03/20 12:20:36;;;;;;;;;;;21.40;30.90;;;;;;5060232;28;19916;-54
2022/03/20 12:23:40;;;;;;;;;;;21.40;30.80;;;;;;5059838;28;19920;-53
2022/03/20 12:26:24;;;;;;;;;;;21.40;31.20;;;;;;4985491;28;20425;-54
2022/03/20 12:28:49;;;;;;;;;;;21.40;31.30;;;;;;4983241;28;20203;-54
2022/03/20 12:31:27;;;;;;;;;;;21.40;31.00;;;;;;5031947;28;19928;-54
2022/03/20 12:34:11;;;;;;;;;;;21.30;31.10;;;;;;5063638;28;19947;-54
2022/03/20 12:36:36;;;;;;;;;;;21.30;31.20;;;;;;5060849;28;19916;-54
2022/03/20 12:39:02;;;;;;;;;;;21.30;31.20;;;;;;5064116;28;19917;-54
2022/03/20 12:41:28;;;;;;;;;;;21.30;31.00;;;;;;5066031;28;19916;-54
2022/03/20 12:44:00;;;;;;;;;;;21.30;30.90;;;;;;5065516;28;19916;-54
2022/03/20 12:46:25;;;;;;;;;;;21.30;31.20;;;;;;5061003;28;19920;-54
2022/03/20 12:48:51;;;;;;;;;;;21.20;30.80;;;;;;5066912;28;19916;-54
2022/03/20 12:51:20;;;;;;;;;;;21.10;31.00;;;;;;5068325;28;20360;-55
2022/03/20 12:53:46;;;;;;;;;;;21.20;30.90;;;;;;5065977;28;19920;-54
2022/03/20 12:56:28;;;;;;;;;;;21.20;31.00;;;;;;5064400;28;19965;-55
2022/03/20 12:58:53;;;;;;;;;;;21.20;30.60;;;;;;5067176;28;20373;-55
2022/03/20 13:01:19;;;;;;;;;;;21.20;30.40;;;;;;5064258;28;19917;-54
2022/03/20 13:03:45;;;;;;;;;;;21.30;30.20;;;;;;5061970;28;20413;-54
2022/03/20 13:06:10;;;;;;;;;;;21.40;30.00;;;;;;5064461;28;19958;-55
2022/03/20 13:08:39;;;;;;;;;;;21.40;30.20;;;;;;5065907;28;19925;-55
2022/03/20 13:11:06;;;;;;;;;;;21.40;30.80;;;;;;5064358;28;19967;-55
2022/03/20 13:13:36;;;;;;;;;;;21.40;31.20;;;;;;5063143;28;19913;-54
2022/03/20 13:16:05;;;;;;;;;;;21.30;30.20;;;;;;5066247;28;19916;-54
2022/03/20 13:18:31;;;;;;;;;;;21.30;30.20;;;;;;5067033;28;19916;-55
2022/03/20 13:20:56;;;;;;;;;;;21.30;29.70;;;;;;5066071;28;19916;-54
2022/03/20 13:23:22;;;;;;;;;;;21.30;29.70;;;;;;5064611;28;20616;-54
2022/03/20 13:25:52;;;;;;;;;;;21.30;29.60;;;;;;5068248;28;19912;-54
2022/03/20 13:28:25;;;;;;;;;;;21.30;29.70;;;;;;5067948;28;19919;-54
2022/03/20 13:30:50;;;;;;;;;;;21.30;29.80;;;;;;5065071;28;20352;-55
2022/03/20 13:33:24;;;;;;;;;;;21.30;29.60;;;;;;5066899;28;19912;-54
2022/03/20 13:35:52;;;;;;;;;;;21.30;29.60;;;;;;5066722;28;20322;-55
2022/03/20 13:38:17;;;;;;;;;;;21.30;29.50;;;;;;5064823;28;19923;-55
2022/03/20 13:40:42;;;;;;;;;;;21.30;29.50;;;;;;5066362;28;19912;-55
2022/03/20 13:43:11;;;;;;;;;;;21.20;29.60;;;;;;5065092;28;20000;-54
2022/03/20 13:45:38;;;;;;;;;;;21.20;29.40;;;;;;5065694;28;19956;-54
2022/03/20 13:48:04;;;;;;;;;;;21.10;29.80;;;;;;5062051;28;19920;-55
2022/03/20 13:50:30;;;;;;;;;;;21.10;29.80;;;;;;5066453;28;19969;-54
2022/03/20 13:52:55;;;;;;;;;;;21.10;29.50;;;;;;5066959;28;19959;-55
2022/03/20 13:55:21;;;;;;;;;;;21.10;29.30;;;;;;5079782;28;19913;-55
2022/03/20 13:57:47;;;;;;;;;;;21.10;29.10;;;;;;5067033;28;20301;-54
2022/03/20 14:00:12;;;;;;;;;;;21.10;29.10;;;;;;5067034;28;19924;-54
2022/03/20 14:02:39;;;;;;;;;;;21.20;29.20;;;;;;5067411;28;20015;-54
2022/03/20 14:05:09;;;;;;;;;;;21.10;28.90;;;;;;5066012;28;19913;-55
2022/03/20 14:07:34;;;;;;;;;;;21.20;28.80;;;;;;5067504;28;19932;-54
2022/03/20 14:10:00;;;;;;;;;;;21.30;28.80;;;;;;5064251;28;19912;-55
2022/03/20 14:12:31;;;;;;;;;;;21.30;29.10;;;;;;5064956;28;19925;-54
2022/03/20 14:14:58;;;;;;;;;;;21.30;29.40;;;;;;5066655;28;19955;-55
2022/03/20 14:17:53;;;;;;;;;;;21.20;29.20;;;;;;5064555;28;19913;-54
2022/03/20 14:20:21;;;;;;;;;;;21.30;29.10;;;;;;5056210;28;20315;-54
2022/03/20 14:22:53;;;;;;;;;;;21.30;29.00;;;;;;5065780;28;19943;-54
2022/03/20 14:25:37;;;;;;;;;;;21.30;29.20;;;;;;5066165;28;19913;-55
2022/03/20 14:28:04;;;;;;;;;;;21.20;28.90;;;;;;5066732;28;19912;-54
2022/03/20 14:41:35;;;;;;;;;;;21.30;29.00;;;;;;5062869;28;19963;-54
2022/03/20 14:44:04;;;;;;;;;;;21.30;28.70;;;;;;5065267;28;19995;-55
2022/03/20 14:46:30;;;;;;;;;;;21.30;28.50;;;;;;5058367;28;19916;-55
2022/03/20 14:48:56;;;;;;;;;;;21.30;28.60;;;;;;5057832;28;19970;-55
2022/03/20 14:51:22;;;;;;;;;;;21.30;28.50;;;;;;5064117;28;19920;-55
2022/03/20 14:53:48;;;;;;;;;;;21.30;28.30;;;;;;5065161;28;19924;-55